Time;durP1;ratioP1;P1;durP2;ratioP2;P2;SDS_P1;SDS_P2;PMS_P1;PMS_P2;Temp;Humidity;BMP_temperature;BMP_pressure;BME280_temperature;BME280_humidity;BME280_pressure;Samples;Min_cycle;Max_cycle;Signal;HPM_P1;HPM_P2
2023/02/13 00:00:22;;;;;;;8.87;5.23;;;4.60;99.90;;;;;;4976784;28;20204;-72
2023/02/13 00:02:48;;;;;;;12.30;6.53;;;4.60;99.90;;;;;;4979047;28;20194;-72
2023/02/13 00:05:15;;;;;;;15.67;6.53;;;4.60;99.90;;;;;;4996853;28;20207;-72
2023/02/13 00:07:41;;;;;;;13.57;7.50;;;4.60;99.90;;;;;;4980002;28;20190;-72
2023/02/13 00:10:08;;;;;;;23.40;8.80;;;4.70;99.90;;;;;;4977839;28;20786;-72
2023/02/13 00:12:35;;;;;;;23.90;10.10;;;4.70;99.90;;;;;;4979911;28;20204;-72
2023/02/13 00:15:02;;;;;;;22.77;9.87;;;4.80;99.90;;;;;;4981397;28;20197;-72
2023/02/13 00:17:28;;;;;;;21.37;10.87;;;4.80;99.90;;;;;;4973631;28;20566;-72
2023/02/13 00:19:54;;;;;;;29.53;12.37;;;4.80;99.90;;;;;;4977967;28;20194;-72
2023/02/13 00:22:21;;;;;;;37.53;15.50;;;4.80;99.90;;;;;;4976149;28;20201;-72
2023/02/13 00:24:47;;;;;;;28.70;12.97;;;4.90;99.90;;;;;;4980708;28;20215;-72
2023/02/13 00:27:13;;;;;;;26.67;13.43;;;4.90;99.90;;;;;;4978391;28;20197;-72
2023/02/13 00:29:41;;;;;;;26.23;12.40;;;4.90;99.90;;;;;;4993477;28;20236;-72
2023/02/13 00:32:07;;;;;;;27.70;14.43;;;4.90;99.90;;;;;;4976854;28;20375;-72
2023/02/13 00:34:33;;;;;;;34.03;16.17;;;4.90;99.90;;;;;;4981949;28;20229;-72
2023/02/13 00:37:00;;;;;;;32.83;15.57;;;4.90;99.90;;;;;;4979735;28;20204;-72
2023/02/13 00:39:26;;;;;;;44.70;17.70;;;4.90;99.90;;;;;;4979714;28;20712;-72
2023/02/13 00:41:52;;;;;;;36.70;16.10;;;4.90;99.90;;;;;;4993755;28;20273;-72
2023/02/13 00:44:26;;;;;;;43.03;17.00;;;4.90;99.90;;;;;;4977943;28;20775;-72
2023/02/13 00:46:52;;;;;;;36.97;15.67;;;4.80;99.90;;;;;;4981361;28;20193;-72
2023/02/13 00:49:18;;;;;;;38.27;16.43;;;4.80;99.90;;;;;;4978604;28;20182;-72
2023/02/13 00:51:44;;;;;;;42.23;16.80;;;4.80;99.90;;;;;;4977086;28;20189;-72
2023/02/13 00:54:11;;;;;;;44.10;18.97;;;4.80;99.90;;;;;;4959836;28;20836;-72
2023/02/13 00:56:37;;;;;;;40.60;17.90;;;4.80;99.90;;;;;;4977278;28;20201;-72
2023/02/13 00:59:06;;;;;;;38.70;17.07;;;4.90;99.90;;;;;;4978174;28;20194;-72
2023/02/13 01:01:32;;;;;;;33.90;15.23;;;4.90;99.90;;;;;;4978238;28;20190;-73
2023/02/13 01:03:58;;;;;;;29.80;14.13;;;4.90;99.90;;;;;;4962510;28;20327;-73
2023/02/13 01:06:25;;;;;;;31.53;15.27;;;4.90;99.90;;;;;;4980591;28;20567;-73
2023/02/13 01:08:52;;;;;;;35.40;15.70;;;4.80;99.90;;;;;;4995578;28;20186;-73
2023/02/13 01:11:18;;;;;;;31.37;14.77;;;4.80;99.90;;;;;;4979531;28;20197;-73
2023/02/13 01:13:45;;;;;;;29.83;16.13;;;4.80;99.90;;;;;;4980175;28;20713;-73
2023/02/13 01:16:11;;;;;;;36.17;16.83;;;4.80;99.90;;;;;;4996039;28;20694;-73
2023/02/13 01:18:38;;;;;;;34.40;17.00;;;4.80;99.90;;;;;;4993356;28;20247;-73
2023/02/13 01:21:14;;;;;;;25.17;13.37;;;4.80;99.90;;;;;;4977947;28;20591;-73
2023/02/13 01:23:40;;;;;;;18.17;9.63;;;4.80;99.90;;;;;;4982914;28;20216;-73
2023/02/13 01:26:12;;;;;;;19.87;10.63;;;4.80;99.90;;;;;;4960280;28;20189;-73
2023/02/13 01:28:38;;;;;;;15.20;8.57;;;4.80;99.90;;;;;;4978956;28;20194;-73
2023/02/13 01:31:05;;;;;;;15.13;8.83;;;4.80;99.90;;;;;;4977835;28;20272;-73
2023/02/13 01:33:31;;;;;;;14.70;9.00;;;4.80;99.90;;;;;;4980338;28;20825;-73
2023/02/13 01:35:59;;;;;;;12.67;7.43;;;4.80;99.90;;;;;;4979972;28;20256;-73
2023/02/13 01:38:25;;;;;;;13.30;7.27;;;4.80;99.90;;;;;;4980161;28;20182;-73
2023/02/13 01:40:53;;;;;;;13.77;6.93;;;4.90;99.90;;;;;;4994075;28;20190;-73
2023/02/13 01:43:22;;;;;;;14.50;8.27;;;4.90;99.90;;;;;;4960742;28;20197;-73
2023/02/13 01:45:55;;;;;;;12.80;7.43;;;4.90;99.90;;;;;;4979121;28;20204;-73
2023/02/13 01:48:26;;;;;;;16.73;8.37;;;4.90;99.90;;;;;;4979271;28;20568;-73
2023/02/13 01:50:59;;;;;;;19.13;10.17;;;4.90;99.90;;;;;;4980415;28;20193;-73
2023/02/13 01:53:55;;;;;;;30.10;15.40;;;4.90;99.90;;;;;;4975987;28;20969;-73
2023/02/13 01:56:39;;;;;;;23.73;11.73;;;4.90;99.90;;;;;;4961377;28;20201;-73
2023/02/13 01:59:14;;;;;;;32.70;14.77;;;4.90;99.90;;;;;;4977536;28;20190;-73
2023/02/13 02:01:41;;;;;;;25.47;13.17;;;4.80;99.90;;;;;;4992495;28;20193;-73
2023/02/13 02:04:15;;;;;;;22.90;13.50;;;4.80;99.90;;;;;;4983372;28;20217;-73
2023/02/13 02:06:54;;;;;;;15.53;8.73;;;4.80;99.90;;;;;;4957704;28;20717;-73
2023/02/13 02:09:27;;;;;;;22.63;10.80;;;4.80;99.90;;;;;;4977068;28;20595;-73
2023/02/13 02:12:27;;;;;;;19.30;11.57;;;4.80;99.90;;;;;;4961478;28;20220;-73
2023/02/13 02:14:57;;;;;;;20.60;11.97;;;4.80;99.90;;;;;;4979381;28;20197;-73
2023/02/13 02:17:26;;;;;;;25.77;14.13;;;4.80;99.90;;;;;;4963309;28;20247;-73
2023/02/13 02:20:36;;;;;;;18.70;10.80;;;4.80;99.90;;;;;;4979768;28;20198;-73
2023/02/13 02:23:25;;;;;;;15.47;10.13;;;4.80;99.90;;;;;;4977776;28;20229;-73
2023/02/13 02:26:12;;;;;;;12.87;7.80;;;4.80;99.90;;;;;;4981324;28;20531;-73
2023/02/13 02:28:54;;;;;;;11.67;7.47;;;4.90;99.90;;;;;;4978948;28;20208;-73
2023/02/13 02:31:35;;;;;;;19.33;9.43;;;4.90;99.90;;;;;;4975537;28;20276;-72
2023/02/13 02:34:41;;;;;;;15.83;9.40;;;4.90;99.90;;;;;;4979879;28;20235;-72
2023/02/13 02:37:35;;;;;;;21.83;10.27;;;4.90;99.90;;;;;;4982683;28;20661;-72
2023/02/13 02:40:37;;;;;;;16.80;9.50;;;5.00;99.90;;;;;;4979787;28;20569;-72
2023/02/13 02:43:59;;;;;;;19.73;11.53;;;5.00;99.90;;;;;;4964861;28;20730;-72
2023/02/13 02:46:38;;;;;;;24.73;11.70;;;5.00;99.90;;;;;;4996895;28;20205;-72
2023/02/13 02:52:19;;;;;;;39.53;17.47;;;5.00;99.90;;;;;;4979657;28;20186;-72
2023/02/13 02:55:06;;;;;;;48.10;21.70;;;5.00;99.90;;;;;;4996321;28;20213;-70
2023/02/13 03:06:22;;;;;;;42.20;21.13;;;4.80;99.90;;;;;;4980694;28;20205;-70
2023/02/13 03:14:34;;;;;;;229.70;76.70;;;3.70;99.90;;;;;;4977620;28;20223;-70
2023/02/13 03:23:32;;;;;;;48.03;22.77;;;3.50;99.90;;;;;;4979629;28;20216;-70
2023/02/13 03:26:10;;;;;;;45.73;20.40;;;3.50;99.90;;;;;;4996167;28;20639;-70
2023/02/13 03:32:02;;;;;;;41.28;20.90;;;3.40;99.90;;;;;;4975283;28;20422;-69
2023/02/13 03:37:53;;;;;;;37.10;15.63;;;3.30;99.90;;;;;;4981408;28;20216;-70
2023/02/13 03:41:17;;;;;;;36.20;14.30;;;3.30;99.90;;;;;;4977616;28;20201;-70
2023/02/13 03:43:36;;;;;;;25.07;11.43;;;3.40;99.90;;;;;;4978066;28;20284;-70
2023/02/13 03:46:04;;;;;;;19.90;9.57;;;3.30;99.90;;;;;;4984552;28;20192;-70
2023/02/13 03:52:01;;;;;;;15.03;8.80;;;3.20;99.90;;;;;;4979751;28;20213;-70
2023/02/13 04:00:16;;;;;;;15.33;7.67;;;3.20;99.90;;;;;;4985521;28;20189;-70
2023/02/13 04:03:14;;;;;;;15.63;9.10;;;3.20;99.90;;;;;;4979139;28;20411;-69
2023/02/13 04:05:49;;;;;;;18.42;10.20;;;3.20;99.90;;;;;;4982628;28;20434;-70
2023/02/13 04:08:15;;;;;;;17.17;8.43;;;3.20;99.90;;;;;;4980848;28;20684;-70
2023/02/13 04:10:56;;;;;;;15.03;7.53;;;3.20;99.90;;;;;;4983972;28;20191;-70
2023/02/13 04:13:34;;;;;;;19.20;9.27;;;3.30;99.90;;;;;;4983140;28;20194;-70
2023/02/13 04:16:10;;;;;;;19.10;9.40;;;3.30;99.90;;;;;;4982664;28;20662;-70
2023/02/13 04:18:38;;;;;;;29.70;11.50;;;3.20;99.90;;;;;;4982130;28;20678;-70
2023/02/13 04:21:07;;;;;;;22.90;10.50;;;3.10;99.90;;;;;;4994282;28;20191;-70
2023/02/13 04:23:34;;;;;;;22.50;11.20;;;3.10;99.90;;;;;;4984460;28;20671;-70
2023/02/13 04:26:07;;;;;;;34.47;15.07;;;3.10;99.90;;;;;;4967006;28;20544;-70
2023/02/13 04:28:35;;;;;;;37.17;14.73;;;3.10;99.90;;;;;;4981958;28;20228;-70
2023/02/13 04:31:01;;;;;;;50.47;20.03;;;3.10;99.90;;;;;;4981338;28;20204;-70
2023/02/13 04:33:28;;;;;;;30.97;15.03;;;3.20;99.90;;;;;;4995644;28;20220;-70
2023/02/13 04:35:55;;;;;;;17.70;7.80;;;3.10;99.90;;;;;;4986488;28;20686;-70
2023/02/13 04:38:21;;;;;;;12.43;6.53;;;3.10;99.90;;;;;;4965714;28;20899;-70
2023/02/13 04:40:48;;;;;;;14.37;7.90;;;3.10;99.90;;;;;;4967030;28;21675;-70
2023/02/13 04:43:16;;;;;;;15.43;6.73;;;3.20;99.90;;;;;;4983926;28;20197;-70
2023/02/13 04:45:42;;;;;;;12.00;6.57;;;3.20;99.90;;;;;;4983719;28;20296;-70
2023/02/13 04:48:11;;;;;;;12.03;6.20;;;3.30;99.90;;;;;;4981162;28;20197;-70
2023/02/13 04:50:37;;;;;;;17.70;7.77;;;3.30;99.90;;;;;;4982941;28;20193;-70
2023/02/13 04:53:03;;;;;;;19.87;9.87;;;3.50;99.90;;;;;;4984967;28;20189;-70
2023/02/13 04:55:29;;;;;;;18.17;8.67;;;3.70;99.90;;;;;;4985671;28;20256;-70
2023/02/13 04:57:56;;;;;;;13.80;7.53;;;3.60;99.90;;;;;;4982131;28;20204;-70
2023/02/13 05:00:27;;;;;;;8.27;6.27;;;3.40;99.90;;;;;;4981703;28;20196;-70
2023/02/13 05:03:00;;;;;;;11.17;7.60;;;3.30;99.90;;;;;;4982592;28;20280;-70
2023/02/13 05:05:26;;;;;;;11.07;6.63;;;3.20;99.90;;;;;;4984223;28;20290;-70
2023/02/13 05:07:52;;;;;;;13.93;6.30;;;3.10;99.90;;;;;;4981725;28;20216;-70
2023/02/13 05:10:20;;;;;;;14.93;8.23;;;3.10;99.90;;;;;;4984812;28;20190;-70
2023/02/13 05:12:47;;;;;;;14.00;7.70;;;3.10;99.90;;;;;;4982616;28;20194;-70
2023/02/13 05:15:13;;;;;;;11.50;6.73;;;3.10;99.90;;;;;;4984613;28;20197;-70
2023/02/13 05:17:44;;;;;;;17.60;8.73;;;3.10;99.90;;;;;;4982016;28;20687;-70
2023/02/13 05:20:12;;;;;;;20.73;11.17;;;3.10;99.90;;;;;;4983374;28;20430;-70
2023/02/13 05:25:38;;;;;;;21.10;11.93;;;3.10;99.90;;;;;;4985545;28;20296;-70
2023/02/13 05:29:17;;;;;;;25.00;10.87;;;3.10;99.90;;;;;;4982071;28;20563;-70
2023/02/13 05:30:52;;;;;;;15.27;9.17;;;3.00;99.90;;;;;;4983353;28;20190;-70
2023/02/13 05:33:18;;;;;;;18.53;10.30;;;3.10;99.90;;;;;;4983104;28;20188;-70
2023/02/13 05:35:44;;;;;;;17.57;9.37;;;3.10;99.90;;;;;;4981877;28;20216;-70
2023/02/13 05:38:10;;;;;;;14.13;9.57;;;3.10;99.90;;;;;;4981946;28;20221;-70
2023/02/13 05:40:36;;;;;;;20.87;12.37;;;3.10;99.90;;;;;;4977433;28;20648;-70
2023/02/13 05:43:03;;;;;;;19.43;12.07;;;3.10;99.90;;;;;;4999056;28;20202;-70
2023/02/13 05:45:29;;;;;;;18.37;11.70;;;3.10;99.90;;;;;;4982462;28;20315;-70
2023/02/13 05:47:55;;;;;;;16.43;11.47;;;3.10;99.90;;;;;;4981102;28;20189;-70
2023/02/13 05:50:22;;;;;;;19.97;11.97;;;3.20;99.90;;;;;;4978744;28;20767;-70
2023/02/13 05:52:48;;;;;;;15.57;11.13;;;3.30;99.90;;;;;;4981831;28;20178;-70
2023/02/13 05:55:15;;;;;;;18.00;11.80;;;3.40;99.90;;;;;;4991712;28;20256;-70
2023/02/13 05:57:41;;;;;;;19.13;12.80;;;3.50;99.90;;;;;;4982963;28;20193;-70
2023/02/13 06:00:08;;;;;;;20.67;13.70;;;3.60;99.90;;;;;;4979755;28;20217;-70
2023/02/13 06:02:34;;;;;;;22.47;13.63;;;3.80;99.90;;;;;;4982286;28;20197;-70
2023/02/13 06:05:01;;;;;;;17.50;10.67;;;3.80;99.90;;;;;;4981126;28;20245;-70
2023/02/13 06:07:27;;;;;;;14.93;10.63;;;3.90;99.90;;;;;;4981503;28;20192;-70
2023/02/13 06:09:53;;;;;;;16.63;9.83;;;4.00;99.90;;;;;;4980426;28;20201;-70
2023/02/13 06:12:19;;;;;;;12.77;8.20;;;4.10;99.90;;;;;;4979314;28;20281;-70
2023/02/13 06:14:45;;;;;;;18.63;9.07;;;4.20;99.90;;;;;;4979906;28;20186;-70
2023/02/13 06:17:12;;;;;;;14.47;8.73;;;4.30;99.90;;;;;;4983893;28;20661;-70
2023/02/13 06:19:38;;;;;;;11.13;7.97;;;4.40;99.90;;;;;;4982806;28;20245;-70
2023/02/13 06:22:04;;;;;;;10.47;6.87;;;4.50;99.90;;;;;;4984177;28;20198;-70
2023/02/13 06:24:30;;;;;;;8.20;5.53;;;4.60;99.90;;;;;;4981052;28;20312;-70
2023/02/13 06:26:57;;;;;;;7.87;5.83;;;4.70;99.90;;;;;;4982005;28;20217;-70
2023/02/13 06:29:23;;;;;;;5.80;4.40;;;4.80;99.90;;;;;;4981587;28;20618;-70
2023/02/13 06:31:50;;;;;;;9.90;4.50;;;4.80;99.90;;;;;;4980629;28;20196;-70
2023/02/13 06:34:16;;;;;;;6.40;4.47;;;4.90;99.90;;;;;;4982125;28;20202;-70
2023/02/13 06:36:43;;;;;;;6.83;4.20;;;5.00;99.90;;;;;;4980723;28;20190;-70
2023/02/13 06:39:10;;;;;;;5.43;4.80;;;5.00;99.90;;;;;;4985267;28;20189;-70
2023/02/13 06:41:36;;;;;;;6.60;4.80;;;5.10;99.90;;;;;;4977805;28;20182;-70
2023/02/13 06:44:02;;;;;;;5.67;4.13;;;5.20;99.90;;;;;;4998323;28;20908;-70
2023/02/13 06:46:29;;;;;;;5.30;4.13;;;5.30;99.90;;;;;;4981611;28;20260;-70
2023/02/13 06:48:55;;;;;;;4.50;4.03;;;5.30;99.90;;;;;;4981028;28;20194;-70
2023/02/13 06:51:21;;;;;;;5.10;4.40;;;5.50;99.90;;;;;;4986355;28;20193;-70
2023/02/13 06:53:47;;;;;;;5.47;3.83;;;5.50;99.90;;;;;;4979154;28;20190;-70
2023/02/13 06:56:13;;;;;;;5.07;4.10;;;5.50;99.90;;;;;;4984181;28;20198;-70
2023/02/13 06:58:40;;;;;;;4.80;3.83;;;5.60;99.90;;;;;;4982175;28;20269;-70
2023/02/13 07:01:06;;;;;;;5.57;4.13;;;5.80;99.90;;;;;;4979319;28;20251;-70
2023/02/13 07:03:32;;;;;;;4.70;3.73;;;5.80;99.90;;;;;;4978367;28;20182;-70
2023/02/13 07:05:59;;;;;;;4.80;3.30;;;5.80;99.90;;;;;;4981124;28;20255;-70
2023/02/13 07:08:25;;;;;;;4.47;3.67;;;5.90;99.90;;;;;;4981743;28;20197;-70
2023/02/13 07:10:51;;;;;;;4.03;3.60;;;6.00;99.90;;;;;;4977597;28;20313;-70
2023/02/13 07:13:17;;;;;;;4.50;3.57;;;6.00;99.90;;;;;;4983119;28;21680;-70
2023/02/13 07:15:43;;;;;;;7.57;4.10;;;6.00;99.90;;;;;;4980256;28;20296;-70
2023/02/13 07:18:10;;;;;;;6.30;4.00;;;6.10;99.90;;;;;;4965573;28;20197;-70
2023/02/13 07:20:36;;;;;;;4.97;3.93;;;6.10;99.90;;;;;;4986148;28;20643;-70
2023/02/13 07:23:05;;;;;;;7.30;3.47;;;6.20;99.90;;;;;;4986006;28;20196;-70
2023/02/13 07:25:32;;;;;;;4.53;3.83;;;6.30;99.90;;;;;;4986817;28;20260;-70
2023/02/13 07:28:05;;;;;;;6.20;3.93;;;6.40;99.90;;;;;;4977026;28;20189;-70
2023/02/13 07:30:33;;;;;;;4.50;3.40;;;6.30;99.90;;;;;;4973792;28;20211;-70
2023/02/13 07:33:04;;;;;;;3.90;3.50;;;6.30;99.90;;;;;;4981635;28;20192;-70
2023/02/13 07:35:32;;;;;;;4.93;3.77;;;6.40;99.90;;;;;;4975544;28;20201;-70
2023/02/13 07:37:59;;;;;;;4.60;3.73;;;6.40;99.90;;;;;;4972686;28;20671;-70
2023/02/13 07:40:25;;;;;;;6.07;3.77;;;6.50;99.90;;;;;;4983291;28;20229;-70
2023/02/13 07:42:54;;;;;;;5.70;4.10;;;6.70;99.90;;;;;;4987448;28;20198;-70
2023/02/13 07:45:24;;;;;;;5.60;4.20;;;7.10;99.90;;;;;;4980627;28;20289;-70
2023/02/13 07:47:53;;;;;;;3.90;3.47;;;7.30;99.90;;;;;;4984051;28;20742;-70
2023/02/13 07:50:19;;;;;;;6.03;3.87;;;7.40;99.90;;;;;;4999595;28;20537;-70
2023/02/13 07:53:01;;;;;;;5.70;3.80;;;7.30;99.90;;;;;;4981502;28;20221;-70
2023/02/13 07:55:29;;;;;;;5.00;4.10;;;7.20;99.90;;;;;;4981951;28;20259;-70
2023/02/13 07:57:58;;;;;;;4.57;3.60;;;7.10;99.90;;;;;;4984650;28;20197;-70
2023/02/13 08:00:25;;;;;;;4.67;3.53;;;7.20;99.90;;;;;;4980382;28;20615;-70
2023/02/13 08:02:51;;;;;;;5.93;3.80;;;7.30;99.90;;;;;;4981100;28;21114;-70
2023/02/13 08:05:17;;;;;;;4.37;3.43;;;7.30;99.90;;;;;;4980657;28;20811;-70
2023/02/13 08:07:43;;;;;;;4.23;3.33;;;7.60;99.90;;;;;;4985217;28;20188;-70
2023/02/13 08:12:57;;;;;;;7.47;3.90;;;8.50;99.90;;;;;;4978965;28;20272;-70
2023/02/13 08:15:23;;;;;;;4.67;3.40;;;8.30;99.90;;;;;;4979184;28;20226;-70
2023/02/13 08:17:50;;;;;;;3.70;2.90;;;8.60;99.90;;;;;;4977107;28;20190;-70
2023/02/13 08:20:16;;;;;;;6.03;3.50;;;9.00;99.90;;;;;;4975905;28;20241;-70
2023/02/13 08:22:42;;;;;;;3.70;2.97;;;8.90;99.90;;;;;;4980205;28;20669;-70
2023/02/13 08:25:08;;;;;;;4.87;3.00;;;9.10;99.90;;;;;;4984740;28;20259;-70
2023/02/13 08:27:35;;;;;;;4.60;2.90;;;9.00;99.90;;;;;;4962581;28;20178;-70
2023/02/13 08:30:02;;;;;;;6.17;3.50;;;9.00;99.90;;;;;;4980886;28;20197;-70
2023/02/13 08:32:31;;;;;;;5.77;3.40;;;8.70;99.90;;;;;;4979291;28;20185;-70
2023/02/13 08:34:57;;;;;;;3.97;3.13;;;8.50;99.90;;;;;;4980553;28;20563;-70
2023/02/13 08:37:24;;;;;;;4.63;3.30;;;8.50;99.90;;;;;;4982953;28;20586;-70
2023/02/13 08:39:50;;;;;;;4.10;3.03;;;8.40;99.90;;;;;;4978613;28;20201;-70
2023/02/13 08:42:16;;;;;;;4.60;3.20;;;8.60;99.90;;;;;;4980972;28;20189;-70
2023/02/13 08:44:43;;;;;;;4.23;2.73;;;8.80;99.90;;;;;;4980396;28;20599;-70
2023/02/13 08:47:10;;;;;;;5.30;2.60;;;9.10;99.90;;;;;;4979474;28;20252;-70
2023/02/13 08:49:36;;;;;;;3.40;2.83;;;9.30;99.90;;;;;;4973377;28;20722;-70
2023/02/13 08:52:05;;;;;;;3.77;2.93;;;9.50;99.90;;;;;;4981875;28;20185;-70
2023/02/13 08:54:35;;;;;;;4.47;3.17;;;9.60;99.90;;;;;;4982003;28;20203;-70
2023/02/13 08:57:03;;;;;;;3.97;2.90;;;9.60;99.90;;;;;;4982337;28;20311;-70
2023/02/13 08:59:29;;;;;;;3.63;2.70;;;9.70;99.90;;;;;;4980653;28;20192;-70
2023/02/13 09:01:57;;;;;;;4.13;2.80;;;9.70;99.90;;;;;;4979730;28;20651;-70
2023/02/13 09:04:25;;;;;;;4.33;2.83;;;9.60;99.90;;;;;;4997810;28;20204;-70
2023/02/13 09:06:51;;;;;;;5.37;3.03;;;9.40;99.90;;;;;;4994248;28;20221;-70
2023/02/13 09:09:18;;;;;;;5.37;3.03;;;9.30;99.90;;;;;;4996201;28;20182;-70
2023/02/13 09:11:44;;;;;;;3.57;2.83;;;9.30;99.90;;;;;;4976329;28;20198;-70
2023/02/13 09:14:10;;;;;;;4.77;2.73;;;9.60;99.90;;;;;;4977788;28;20292;-70
2023/02/13 09:16:36;;;;;;;4.33;3.07;;;9.90;99.90;;;;;;4991304;28;20244;-70
2023/02/13 09:19:03;;;;;;;4.30;2.90;;;10.00;99.90;;;;;;4981316;28;20193;-70
2023/02/13 09:21:30;;;;;;;4.23;3.03;;;9.80;99.90;;;;;;4978158;28;20200;-70
2023/02/13 09:23:56;;;;;;;6.07;3.20;;;10.00;99.90;;;;;;4972315;28;20198;-70
2023/02/13 09:26:23;;;;;;;4.43;2.80;;;10.30;99.90;;;;;;4965310;28;20197;-70
2023/02/13 09:28:49;;;;;;;5.53;3.00;;;10.40;99.90;;;;;;4977030;28;20189;-70
2023/02/13 09:31:19;;;;;;;4.77;3.40;;;10.50;99.90;;;;;;4976019;28;20677;-70
2023/02/13 09:33:47;;;;;;;6.13;2.90;;;10.20;99.90;;;;;;4986043;28;20194;-70
2023/02/13 09:36:21;;;;;;;5.53;3.43;;;10.10;99.90;;;;;;4982487;28;20193;-70
2023/02/13 09:38:54;;;;;;;4.03;3.20;;;10.10;99.90;;;;;;4980379;28;20193;-70
2023/02/13 09:41:52;;;;;;;7.93;3.00;;;10.20;99.90;;;;;;5001195;28;20243;-70
2023/02/13 09:44:37;;;;;;;4.73;3.20;;;10.30;99.90;;;;;;4968709;28;20236;-70
2023/02/13 09:47:12;;;;;;;4.20;2.90;;;10.50;99.90;;;;;;4976854;28;20204;-70
2023/02/13 09:49:53;;;;;;;3.37;2.60;;;10.50;99.90;;;;;;4976997;28;20184;-70
2023/02/13 09:52:20;;;;;;;8.53;3.07;;;10.60;99.90;;;;;;4985963;28;20177;-70
2023/02/13 09:54:46;;;;;;;4.63;3.30;;;10.70;99.90;;;;;;4975940;28;20194;-70
2023/02/13 09:57:32;;;;;;;4.13;3.37;;;10.70;99.90;;;;;;4961417;28;20722;-70
2023/02/13 10:00:11;;;;;;;4.13;2.93;;;10.90;99.90;;;;;;4974204;28;20263;-70
2023/02/13 10:02:56;;;;;;;4.53;3.43;;;11.00;99.90;;;;;;4979490;28;20267;-70
2023/02/13 10:05:56;;;;;;;5.27;3.77;;;11.10;99.90;;;;;;4978049;28;20213;-70
2023/02/13 10:08:53;;;;;;;7.50;3.77;;;11.10;99.90;;;;;;4980751;28;20575;-70
2023/02/13 10:11:46;;;;;;;5.83;4.00;;;11.00;99.90;;;;;;4977587;28;20256;-70
2023/02/13 10:15:19;;;;;;;4.57;3.53;;;11.10;99.90;;;;;;4977930;28;20209;-70
2023/02/13 10:18:02;;;;;;;4.13;3.27;;;11.20;99.90;;;;;;4941359;29;20202;-70
2023/02/13 10:21:07;;;;;;;6.27;3.43;;;11.30;99.90;;;;;;4997317;28;20185;-70
2023/02/13 10:23:54;;;;;;;5.17;3.53;;;11.40;99.90;;;;;;4900193;29;20201;-69
2023/02/13 10:26:41;;;;;;;4.03;3.40;;;11.60;99.90;;;;;;4899528;29;20188;-69
2023/02/13 10:32:12;;;;;;;6.47;4.37;;;11.80;99.90;;;;;;4976938;28;20636;-71
2023/02/13 10:34:46;;;;;;;7.57;4.87;;;11.90;99.90;;;;;;4977090;28;20356;-71
2023/02/13 10:37:22;;;;;;;7.90;4.37;;;12.00;99.90;;;;;;4977419;28;20643;-71
2023/02/13 10:39:55;;;;;;;5.87;4.40;;;12.20;99.90;;;;;;4979769;28;20216;-71
2023/02/13 10:42:40;;;;;;;8.43;5.37;;;12.20;99.90;;;;;;4972421;28;20187;-70
2023/02/13 10:45:19;;;;;;;10.57;4.60;;;12.30;99.90;;;;;;4974951;28;20215;-71
2023/02/13 10:48:22;;;;;;;8.20;4.23;;;12.30;99.90;;;;;;4977059;28;20181;-71
2023/02/13 10:51:03;;;;;;;8.30;4.70;;;12.80;99.90;;;;;;4992259;28;20328;-71
2023/02/13 10:53:39;;;;;;;6.07;4.23;;;13.30;99.90;;;;;;4993059;28;20193;-71
2023/02/13 10:56:26;;;;;;;8.57;4.17;;;13.60;99.90;;;;;;4987959;28;20196;-71
2023/02/13 10:59:21;;;;;;;6.97;4.63;;;13.90;99.90;;;;;;4985763;28;20216;-71
2023/02/13 11:02:16;;;;;;;7.40;4.50;;;13.80;99.90;;;;;;4978432;28;20617;-71
2023/02/13 11:04:46;;;;;;;8.63;4.60;;;14.20;99.90;;;;;;4985184;28;20891;-71
2023/02/13 11:07:22;;;;;;;11.73;6.80;;;14.00;99.90;;;;;;4984233;28;21047;-71
2023/02/13 11:09:53;;;;;;;13.73;6.63;;;14.00;99.90;;;;;;4978589;28;20272;-70
2023/02/13 11:12:30;;;;;;;9.00;5.77;;;14.20;99.90;;;;;;4983108;28;20204;-70
2023/02/13 11:15:04;;;;;;;9.53;4.80;;;14.60;99.90;;;;;;4982723;28;20190;-71
2023/02/13 11:17:36;;;;;;;10.00;5.47;;;14.40;99.90;;;;;;4985240;28;20277;-70
2023/02/13 11:20:28;;;;;;;9.23;5.30;;;13.90;99.90;;;;;;4982809;28;20216;-71
2023/02/13 11:23:14;;;;;;;10.73;6.10;;;13.80;99.90;;;;;;4975919;28;20221;-70
2023/02/13 11:25:40;;;;;;;9.20;4.97;;;14.40;99.90;;;;;;4978527;28;20221;-71
2023/02/13 11:28:19;;;;;;;7.70;4.93;;;14.50;99.90;;;;;;4982538;28;20228;-71
2023/02/13 11:30:47;;;;;;;9.77;5.70;;;14.10;99.90;;;;;;4979039;28;20197;-71
2023/02/13 11:33:21;;;;;;;16.43;5.60;;;13.60;99.90;;;;;;4984192;28;20665;-71
2023/02/13 11:35:48;;;;;;;7.63;4.50;;;13.50;99.90;;;;;;4979988;28;20201;-71
2023/02/13 11:38:22;;;;;;;8.70;5.33;;;13.40;99.90;;;;;;4968603;28;20190;-71
2023/02/13 11:41:13;;;;;;;8.10;5.00;;;13.40;99.90;;;;;;4978734;28;20732;-71
2023/02/13 11:43:59;;;;;;;9.00;4.97;;;13.40;99.90;;;;;;4980806;28;20663;-71
2023/02/13 11:46:30;;;;;;;6.93;4.83;;;13.30;99.90;;;;;;4978405;28;20201;-71
2023/02/13 11:49:06;;;;;;;9.47;4.53;;;13.40;99.90;;;;;;4979191;28;20209;-71
2023/02/13 11:51:59;;;;;;;6.43;4.07;;;13.40;99.90;;;;;;4982228;28;20276;-71
2023/02/13 11:54:44;;;;;;;5.50;3.73;;;13.40;99.90;;;;;;4983380;28;20190;-70
2023/02/13 11:57:32;;;;;;;6.07;4.00;;;13.50;99.90;;;;;;4984879;28;20494;-70
2023/02/13 12:00:01;;;;;;;7.43;3.67;;;13.50;99.90;;;;;;4983679;28;20241;-70
2023/02/13 12:02:46;;;;;;;6.80;3.50;;;13.50;99.90;;;;;;4983806;28;20185;-69
2023/02/13 12:05:26;;;;;;;5.00;3.80;;;13.50;99.90;;;;;;4977708;28;20209;-69
2023/02/13 12:08:00;;;;;;;4.47;3.10;;;13.30;99.90;;;;;;4984697;28;20205;-70
2023/02/13 12:10:32;;;;;;;7.17;3.47;;;13.00;99.90;;;;;;4988475;28;20197;-70
2023/02/13 12:13:06;;;;;;;5.30;3.30;;;12.90;99.90;;;;;;4986313;28;20192;-70
2023/02/13 12:15:35;;;;;;;5.30;3.17;;;12.50;99.90;;;;;;4986425;28;20709;-70
2023/02/13 12:18:16;;;;;;;5.13;3.60;;;12.10;99.90;;;;;;4983059;28;20655;-70
2023/02/13 12:21:03;;;;;;;4.10;3.13;;;12.70;99.90;;;;;;4963041;28;20189;-70
2023/02/13 12:23:47;;;;;;;4.30;3.07;;;13.00;99.90;;;;;;4974361;28;20200;-70
2023/02/13 12:26:33;;;;;;;5.10;3.10;;;13.10;99.90;;;;;;4970316;28;20230;-70
2023/02/13 12:29:36;;;;;;;4.57;3.20;;;13.10;99.90;;;;;;4995611;28;20602;-70
2023/02/13 12:32:29;;;;;;;4.87;3.57;;;12.80;99.90;;;;;;4992169;28;20194;-70
2023/02/13 12:35:37;;;;;;;5.43;3.53;;;12.50;99.90;;;;;;4987017;28;20255;-70
2023/02/13 12:38:13;;;;;;;4.10;3.10;;;12.10;99.90;;;;;;4975571;28;20223;-70
2023/02/13 12:41:04;;;;;;;4.97;3.43;;;11.60;99.90;;;;;;4980651;28;20922;-70
2023/02/13 12:44:22;;;;;;;3.60;2.83;;;11.20;99.90;;;;;;4980924;28;20260;-70
2023/02/13 12:47:18;;;;;;;4.00;3.07;;;11.50;99.90;;;;;;4978954;28;20201;-70
2023/02/13 12:49:59;;;;;;;4.23;3.10;;;11.70;99.90;;;;;;4975534;28;20308;-69
2023/02/13 12:52:47;;;;;;;4.97;2.77;;;12.50;99.90;;;;;;4977226;28;20183;-69
2023/02/13 12:55:42;;;;;;;5.13;3.20;;;12.60;99.90;;;;;;4982007;28;20200;-69
2023/02/13 12:58:52;;;;;;;6.90;3.53;;;12.60;99.90;;;;;;4972273;28;20198;-69
2023/02/13 13:01:52;;;;;;;5.07;3.30;;;12.60;99.90;;;;;;4982470;28;20189;-69
2023/02/13 13:04:27;;;;;;;3.70;2.70;;;12.70;99.90;;;;;;4980976;28;20300;-70
2023/02/13 14:06:45;;;;;;;10.30;6.33;;;11.60;99.90;;;;;;5073484;27;20839;-72
2023/02/13 14:09:26;;;;;;;10.80;6.00;;;11.50;99.90;;;;;;5069712;28;20603;-72
2023/02/13 14:11:55;;;;;;;12.83;6.37;;;11.40;99.90;;;;;;5063010;28;20195;-72
2023/02/13 14:14:27;;;;;;;12.33;5.90;;;11.30;99.90;;;;;;5060834;28;20183;-72
2023/02/13 14:17:03;;;;;;;11.60;5.67;;;11.30;99.90;;;;;;5050731;28;20273;-72
2023/02/13 14:19:39;;;;;;;10.30;6.37;;;11.30;99.90;;;;;;5058911;28;20651;-72
2023/02/13 14:22:33;;;;;;;10.17;5.67;;;11.10;99.90;;;;;;5060583;28;20198;-72
2023/02/13 14:25:27;;;;;;;10.80;5.63;;;10.60;99.90;;;;;;5064404;28;20225;-72
2023/02/13 14:28:03;;;;;;;8.13;5.33;;;10.10;99.90;;;;;;5062066;28;20223;-71
2023/02/13 14:30:39;;;;;;;6.53;5.37;;;9.80;99.90;;;;;;5063118;28;20186;-72
2023/02/13 14:33:20;;;;;;;7.23;5.07;;;9.70;99.90;;;;;;5062594;28;20186;-71
2023/02/13 14:35:59;;;;;;;6.07;4.73;;;9.40;99.90;;;;;;5060874;28;20800;-71
2023/02/13 14:38:27;;;;;;;6.67;4.87;;;9.30;99.90;;;;;;5066729;28;20204;-72
2023/02/13 14:40:54;;;;;;;6.63;4.47;;;9.20;99.90;;;;;;5066365;28;20195;-72
2023/02/13 14:43:30;;;;;;;5.80;4.63;;;9.10;99.90;;;;;;5059799;28;20190;-72
2023/02/13 14:46:13;;;;;;;6.30;4.70;;;8.90;99.90;;;;;;5056646;28;20244;-72
2023/02/13 14:48:55;;;;;;;5.00;4.47;;;8.80;99.90;;;;;;5062188;28;20217;-72
2023/02/13 14:51:38;;;;;;;6.00;4.20;;;8.90;99.90;;;;;;5062302;28;20194;-72
2023/02/13 14:54:24;;;;;;;6.23;4.00;;;9.00;99.90;;;;;;5074810;28;20183;-72
2023/02/13 14:56:58;;;;;;;6.00;3.77;;;9.10;99.90;;;;;;5063154;28;20699;-72
2023/02/13 14:59:34;;;;;;;5.03;4.13;;;9.40;99.90;;;;;;5060217;28;20187;-72
2023/02/13 15:02:28;;;;;;;4.73;3.87;;;9.80;99.90;;;;;;5063165;28;20207;-72
2023/02/13 15:04:56;;;;;;;6.57;3.60;;;10.00;99.90;;;;;;5067631;28;20213;-73
2023/02/13 15:07:29;;;;;;;5.70;4.00;;;10.20;99.90;;;;;;5045422;28;20214;-72